Create Custom Reports and Graphics: Custom Report

Scotts Valley

Current Conditions

5/25/20 8:45 PM (-07:00)
Updated Every 15 Minutes
Temp 76.1 °F   5.9
Daily Max Temp 94.3 °F   2.6
Daily Min Temp 46.3 °F   5.2
Daily Rain 0.00 In
RH 41 %   0
Dew Pt 50.6 °F   5.3
Wet Bulb 60.1 °F   4.3
Wind Dir N | 350 °
Wind Spd 0.4 mph   0.9
Wind Gust 3.5 mph   0.2
Leaf Wet 0.0 mins
BatVolt 12.9 V   0.0

Today & Yesterday

Midnight to Midnight

5/25/20 8:45 PM (-07:00)
Updated Every 15 Minutes
Daily Max Temp 94.3 °F   2.6
Daily Min Temp 46.3 °F   5.2
Daily Max Wind 12.8 mph   2.1
Max Wind Time 1737
Max Wind Dir W | 267 °
Daily Leaf Wet Hrs 2.8 hrs   1.8
Daily Rain 0.00 In
Max Temp Yest 91.7 °F
Min Temp Yest 41.1 °F
Max Wind Yest 10.7 mph
Leaf Wet Hrs Yest 4.5 Hours
Rain Yest 0.00 In

Scotts Valley

Rainfall Report

5/25/20 8:45 PM (-07:00)
Updated Every 15 Minutes
Latest Rain 0.00 In
Daily Rain 0.00 In
Rain Yest 0.00 In
Monthly Rain 1.08 In
Seasonal Rainfall 14.60 In

Last 48 Hours

Scotts Valley

Hourly Data | America/Los_Angeles
as of 5/25/20 8:55 PM PDT
Date & Time Temp (°F) RH (%) Dew Pt (°F) Wet Bulb (°F) Wind Dir (°) Wind Spd (mph) Wind Gust (mph) Leaf Wet (mins) Latest Rain (In) Daily Rain (In) Daily Max Temp (°F) Daily Min Temp (°F) Daily Leaf Wet Hrs (hrs)
5/25/20 - 2000 82.8 33 50.4 61.4 W | 265 2.2 7.3 0.0 0.00 0.00 94.3 46.3 2.8
5/25/20 - 1900 87.3 29 50.7 62.3 W | 268 2.9 9.4 0.0 0.00 0.00 94.3 46.3 2.8
5/25/20 - 1800 89.9 27 51.6 63.1 W | 270 4.0 13.6 0.0 0.00 0.00 94.3 46.3 2.8
5/25/20 - 1700 92.9 25 51.5 63.5 W | 267 3.1 11.6 0.0 0.00 0.00 94.3 46.3 2.8
5/25/20 - 1600 92.4 25 51.2 63.3 W | 266 3.4 9.9 0.0 0.00 0.00 94.0 46.3 2.8
5/25/20 - 1500 91.2 24 48.9 62.1 W | 259 4.5 10.8 0.0 0.00 0.00 91.8 46.3 2.8
5/25/20 - 1400 90.4 23 47.4 61.3 SW | 225 3.6 10.3 0.0 0.00 0.00 91.6 46.3 2.8
5/25/20 - 1300 88.8 26 49.8 62.2 SE | 130 2.5 9.1 0.0 0.00 0.00 90.0 46.3 2.8
5/25/20 - 1200 84.8 31 50.6 61.8 SE | 124 2.5 6.6 0.0 0.00 0.00 87.9 46.3 2.8
5/25/20 - 1100 81.5 38 53.1 62.7 SE | 126 1.8 5.8 0.0 0.00 0.00 83.6 46.3 2.8
5/25/20 - 1000 77.0 45 53.8 62.1 SE | 138 1.2 4.2 0.0 0.00 0.00 79.1 46.3 2.8
5/25/20 - 0900 71.0 58 55.4 61.7 ESE | 107 0.5 2.5 0.0 0.00 0.00 75.3 46.3 2.8
5/25/20 - 0800 57.9 89 54.6 57.1 NE | 53 0.3 1.7 0.0 0.00 0.00 65.6 46.3 2.8
5/25/20 - 0700 47.9 98 47.5 48.4 SE | 141 0.2 1.8 59.9 0.00 0.00 52.8 46.3 2.8
5/25/20 - 0600 46.9 98 46.2 47.2 SE | 129 0.0 1.0 60.0 0.00 0.00 52.8 46.3 1.8
5/25/20 - 0500 48.2 97 47.4 48.4 SE | 125 0.1 1.3 45.1 0.00 0.00 52.8 47.4 0.8
5/25/20 - 0400 49.1 96 48.1 49.3 SSW | 196 0.2 2.0 0.0 0.00 0.00 52.8 48.4 0.0
5/25/20 - 0300 50.3 94 48.8 50.3 WSW | 253 0.2 1.3 0.0 0.00 0.00 52.8 49.5 0.0
5/25/20 - 0200 51.9 92 49.6 51.5 WSW | 251 0.1 1.1 0.0 0.00 0.00 52.8 51.1 0.0
5/25/20 - 0100 53.7 88 50.2 52.6 SSW | 208 0.3 3.0 0.0 0.00 0.00 91.7 41.1 4.5
5/25/20 - 0000 56.2 81 50.3 53.7 ESE | 103 0.2 1.8 0.0 0.00 0.00 91.7 41.1 4.5
5/24/20 - 2300 59.4 70 49.5 54.4 SSW | 207 0.3 1.6 0.0 0.00 0.00 91.7 41.1 4.5
5/24/20 - 2200 65.1 55 48.3 55.8 WSW | 245 0.3 1.9 0.0 0.00 0.00 91.7 41.1 4.5
5/24/20 - 2100 71.9 39 45.4 56.3 WSW | 242 0.8 3.3 0.0 0.00 0.00 91.7 41.1 4.5
5/24/20 - 2000 80.5 29 45.4 58.5 WNW | 295 1.2 6.5 0.0 0.00 0.00 91.7 41.1 4.5
5/24/20 - 1900 85.1 27 47.3 60.3 NNW | 338 3.5 10.7 0.0 0.00 0.00 91.7 41.1 4.5
5/24/20 - 1800 89.5 23 46.7 60.9 NNW | 339 2.6 9.2 0.0 0.00 0.00 91.7 41.1 4.5
5/24/20 - 1700 89.5 15 36.2 57.0 SSE | 158 1.7 7.5 0.0 0.00 0.00 91.3 41.1 4.5
5/24/20 - 1600 88.0 14 33.3 55.8 S | 184 2.4 7.5 0.0 0.00 0.00 89.2 41.1 4.5
5/24/20 - 1500 86.5 15 33.7 55.6 SSE | 150 2.7 6.8 0.0 0.00 0.00 88.0 41.1 4.5
5/24/20 - 1400 84.5 16 33.1 55.0 SE | 132 2.1 5.6 0.0 0.00 0.00 86.0 41.1 4.5
5/24/20 - 1300 82.3 19 35.0 55.1 SE | 136 2.1 7.4 0.0 0.00 0.00 83.5 41.1 4.5
5/24/20 - 1200 77.8 30 43.5 57.0 ESE | 105 2.5 6.2 0.0 0.00 0.00 80.5 41.1 4.5
5/24/20 - 1100 75.1 39 48.1 58.6 SE | 131 1.7 5.5 0.0 0.00 0.00 77.6 41.1 4.5
5/24/20 - 1000 70.8 48 50.0 58.4 NE | 46 1.4 4.0 0.0 0.00 0.00 73.2 41.1 4.5
5/24/20 - 0900 64.0 62 50.8 56.9 SE | 144 0.7 2.8 0.0 0.00 0.00 68.7 41.1 4.5
5/24/20 - 0800 52.4 94 50.6 52.3 NNE | 28 0.8 3.8 16.3 0.00 0.00 59.4 41.1 4.5
5/24/20 - 0700 42.4 98 42.0 42.5 SSW | 212 0.2 1.0 60.0 0.00 0.00 46.8 41.1 4.3
5/24/20 - 0600 41.5 98 40.9 41.5 WSW | 238 0.2 1.2 60.0 0.00 0.00 46.5 41.2 3.3
5/24/20 - 0500 42.2 97 41.4 42.1 SW | 236 0.1 1.1 60.0 0.00 0.00 46.5 41.6 2.3
5/24/20 - 0400 43.0 96 42.2 43.0 SW | 236 0.1 1.2 60.0 0.00 0.00 46.5 42.5 1.3
5/24/20 - 0300 44.2 96 43.1 44.1 WSW | 237 0.1 1.1 15.7 0.00 0.00 46.5 43.6 0.3
5/24/20 - 0200 45.6 93 43.8 45.2 WSW | 237 0.1 1.0 0.0 0.00 0.00 46.5 44.8 0.0
5/24/20 - 0100 47.4 91 44.8 46.5 SW | 236 0.1 1.0 0.0 0.00 0.00 81.6 33.9 6.7
5/24/20 - 0000 49.7 84 45.2 47.9 SW | 231 0.2 2.2 0.0 0.00 0.00 81.6 33.9 6.7
5/23/20 - 2300 53.4 73 44.9 49.4 E | 99 0.5 1.9 0.0 0.00 0.00 81.6 33.9 6.7
5/23/20 - 2200 58.6 57 43.4 50.8 SW | 223 0.5 3.1 0.0 0.00 0.00 81.6 33.9 6.7
5/23/20 - 2100 64.9 44 42.2 52.6 WSW | 253 1.3 5.9 0.0 0.00 0.00 81.6 33.9 6.7
5/23/20 - 2000 70.2 37 42.8 54.6 W | 269 2.7 11.1 0.0 0.00 0.00 81.6 33.9 6.7
Max 92.9 98 55.4 63.5 - 4.5 13.6 60.0 0.00 0.00 94.3 51.1 6.7
Avg 67.7 57 46.3 54.6 - 1.4 4.9 8.9 0.00 - - - -
Min 41.5 14 33.1 41.5 - 0.0 1.0 0.0 0.00 0.00 46.5 33.9 0.0
Total - - - - - - - - 0.00 - - - -

Last 30 Days

Scotts Valley

Daily Data | America/Los_Angeles
as of 5/25/20 8:55 PM PDT
Date Daily Max Temp (°F) Max Temp Time Daily Min Temp (°F) Min Temp Time Daily Rain (In) Storm Total (In) Monthly Rain (In) Seasonal Rainfall (In) Wind Spd (mph) Daily Max Wind (mph) Max Wind Time Max Wind Dir (°) Dew Pt (°F) Max RH (%) Min RH (%) Hrs <= 32F (hrs) Hrs <= 28F (hrs) Chilling <=45F (hrs) Chill Hrs 32-45F (hrs) Utah Chilling (Units) GDDs (DL) GDDs (Mx/Mn) Seas GDDs (DL) Seasonal GDDs (Mx/Mn) Hrs 70-85F (hrs) Hrs > 95F (hrs) Powdery Mildew Stress (pts) Degree Hrs (hrs) Bat Volt Min Day (V)
5/24/20 91.7 1719 41.1 0604 0.00 - 1.08 14.60 1.2 10.7 1843 NNW | 335 43.8 100 11 0.0 0.0 5.0 5.0 0.5 18.0 16.4 454 320 4.66 0.00 20 201.6 12.6
5/23/20 81.6 1558 33.9 0549 0.00 - 1.08 14.60 1.4 12.2 1645 SW | 227 39.4 100 14 0.0 0.0 6.4 6.4 2.0 12.8 7.8 436 304 8.62 0.00 30 107.2 12.6
5/22/20 73.8 1648 39.6 0624 0.00 - 1.08 14.60 1.8 14.6 1542 W | 259 41.1 98 22 0.0 0.0 4.4 4.4 3.5 9.0 6.7 423 296 4.70 0.00 10 39.7 12.7
5/21/20 76.7 1454 39.1 0558 0.00 - 1.08 14.60 2.2 15.9 1703 W | 269 43.9 100 29 0.0 0.0 0.0 0.0 0.5 11.2 7.9 414 289 7.42 0.00 20 34.5 12.8
5/20/20 74.8 1614 36.6 0609 0.00 - 1.08 14.60 1.5 12.7 1812 W | 263 45.6 100 34 0.0 0.0 5.6 5.6 2.0 8.8 5.7 403 281 3.34 0.00 0 34.3 12.7
5/19/20 68.0 1626 34.7 0550 0.00 0.82 1.08 14.60 1.8 16.1 1834 WSW | 251 44.7 100 45 0.0 0.0 6.5 6.5 3.0 5.5 1.3 394 276 0.00 0.00 0 3.9 12.8
5/18/20 61.2 1535 40.1 0059 0.22 0.82 1.08 14.60 2.0 14.0 1725 SSW | 213 47.2 100 54 0.0 0.0 2.8 2.8 5.0 2.1 0.7 389 274 0.00 0.00 10 0.0 12.7
5/17/20 63.6 1228 49.0 0059 0.38 0.60 0.86 14.38 2.3 17.0 1538 S | 174 50.9 100 51 0.0 0.0 0.0 0.0 3.0 4.9 6.3 386 274 0.00 0.00 20 0.0 12.6
5/16/20 69.0 1403 43.3 0617 0.22 0.22 0.48 14.00 1.8 14.7 1517 SW | 235 49.1 99 45 0.0 0.0 1.6 1.6 0.0 7.6 6.2 382 267 0.00 0.00 30 7.5 12.7
5/15/20 77.0 1547 36.8 0618 0.00 0.01 0.26 13.78 1.6 17.6 1334 SE | 143 43.1 100 17 0.0 0.0 6.2 6.2 0.5 10.1 6.9 374 261 5.14 0.00 40 49.1 12.8
5/14/20 66.4 1530 43.7 0056 0.01 0.01 0.26 13.78 1.6 13.4 1351 NNE | 32 47.5 100 47 0.0 0.0 2.1 2.1 3.0 5.5 5.0 364 254 0.00 0.00 50 0.0 12.7
5/13/20 61.9 1557 40.5 0445 0.00 0.25 0.25 13.77 1.4 12.1 1625 WSW | 244 46.3 99 61 0.0 0.0 7.6 7.6 3.5 3.0 1.2 358 249 0.00 0.00 60 0.0 12.8
5/12/20 61.0 1615 40.6 0051 0.08 0.25 0.25 13.77 2.3 18.5 1723 WSW | 248 47.7 99 61 0.0 0.0 1.7 1.7 4.5 2.8 0.8 355 248 0.00 0.00 70 0.0 12.8
5/11/20 58.4 1722 38.9 0633 0.17 0.17 0.17 13.69 1.3 10.0 1838 SSW | 192 45.3 97 36 0.0 0.0 6.5 6.5 3.5 1.9 0.0 353 247 0.00 0.00 80 0.0 12.7
5/10/20 82.0 1424 40.7 0505 0.00 - 0.00 13.52 1.8 13.2 1757 SW | 214 44.7 99 18 0.0 0.0 5.9 5.9 2.0 12.8 11.4 351 247 8.83 0.00 90 111.9 12.6
5/9/20 90.6 1627 39.6 0600 0.00 - 0.00 13.52 1.4 15.9 1653 SSW | 204 41.4 98 7 0.0 0.0 4.8 4.8 1.5 17.3 15.1 338 236 3.11 0.00 70 204.2 12.7
5/8/20 94.5 1630 37.7 0543 0.00 - 0.00 13.52 1.1 13.3 1454 SW | 221 40.2 100 5 0.0 0.0 6.4 6.4 1.0 18.0 16.1 320 221 3.26 0.00 80 216.5 12.7
5/7/20 88.0 1529 33.9 0610 0.00 - 0.00 13.52 1.2 8.3 1821 WSW | 247 35.4 100 6 0.0 0.0 7.1 7.1 2.5 15.6 11.0 302 204 3.51 0.00 90 176.5 12.6
5/6/20 81.8 1622 39.6 0101 0.00 - 0.00 13.52 1.6 11.0 1722 W | 259 37.7 98 14 0.0 0.0 4.6 4.6 2.5 11.7 10.7 287 194 7.98 0.00 100 91.2 12.6
5/5/20 78.8 1503 29.9 0615 0.00 - 0.00 13.52 1.7 17.9 1701 WNW | 290 38.2 98 18 2.6 0.0 9.0 6.5 3.5 10.8 4.4 275 183 8.10 0.00 100 83.4 12.7
5/4/20 80.7 1608 28.6 0619 0.00 - 0.00 13.52 1.4 13.4 1806 W | 267 30.5 100 11 5.4 0.0 9.6 4.2 3.5 10.8 4.7 264 178 7.48 0.00 100 88.4 12.7
5/3/20 72.0 1509 28.4 0620 0.00 - 0.00 13.52 1.8 14.9 1648 WSW | 255 33.9 100 16 3.0 0.0 9.9 6.9 -4.5 6.8 0.2 254 174 1.06 0.00 80 20.0 12.6
5/2/20 63.5 1217 39.0 0407 0.00 - 0.00 13.52 1.8 16.0 1257 W | 263 47.7 100 58 0.0 0.0 6.2 6.2 4.5 4.4 1.3 247 174 0.00 0.00 90 0.0 12.6
5/1/20 77.0 1546 30.2 0609 0.00 - 0.00 13.52 1.7 15.5 1553 NNW | 343 37.3 99 16 3.4 0.0 7.5 4.1 2.0 10.4 3.6 242 172 6.72 0.00 100 64.7 12.7
4/30/20 72.9 1347 34.8 0059 0.00 - 0.71 13.52 2.3 15.1 1855 N | 11 37.2 100 14 0.0 0.0 2.9 2.9 3.5 9.6 3.9 232 169 4.34 0.00 90 38.4 12.6
4/29/20 76.1 1602 47.6 0059 0.00 - 0.71 13.52 1.9 13.6 1941 WNW | 285 50.7 100 34 0.0 0.0 0.0 0.0 2.0 10.4 11.8 222 165 7.31 0.00 100 58.0 12.7
4/28/20 87.3 1610 44.5 0639 0.00 - 0.71 13.52 1.4 13.8 1749 WSW | 245 51.9 100 29 0.0 0.0 0.5 0.5 0.5 15.8 15.9 212 153 6.52 0.00 100 152.1 12.7
4/27/20 77.8 1542 42.2 0448 0.00 - 0.71 13.52 2.6 17.9 1420 WSW | 256 44.8 90 35 0.0 0.0 2.2 2.2 0.0 12.8 10.0 196 137 8.55 0.00 100 83.2 12.7
4/26/20 78.1 1508 39.2 0615 0.00 - 0.71 13.52 2.3 18.8 1557 WSW | 237 35.4 100 12 0.0 0.0 5.2 5.2 2.0 12.0 8.7 183 127 8.32 0.00 100 90.8 12.6
4/25/20 82.6 1457 45.5 0059 0.00 - 0.71 13.52 2.0 18.1 1253 NNW | 339 47.4 97 20 0.0 0.0 0.0 0.0 2.0 12.8 14.0 171 118 9.16 0.00 90 110.9 12.6
Max 94.5 - 49.0 - 0.38 0.82 1.08 - 2.6 18.8 - - 51.9 100 61 5.4 0.0 9.9 7.6 5.0 18.0 16.4 - - 9.16 0.00 100 216.5 12.8
Avg - - - - - 0.35 0.48 - 1.8 - - - 43.0 - - 0.5 0.0 4.6 4.1 2.1 9.9 7.2 - - 4.27 0.00 - - -
Min 58.4 - 28.4 - 0.00 0.01 0.00 - 1.1 8.3 - - 30.5 90 5 0.0 0.0 0.0 0.0 -4.5 1.9 0.0 - - 0.00 0.00 0 0.0 12.6
Total - - - - - - - - - - - - - - - 14.4 0.0 138.3 123.9 63.0 295.5 215.5 - - 128.12 0.00 - - -

Climate Summary

Scotts Valley

Current Year | Showing 1/1/20 - 5/24/20
as of 5/25/20 8:55 PM PDT
Temperature (°F) Precip (in) Days
Month Days Avg Max Avg Min Max Max Min Min Total Daily Min Temp < 28 Daily Min Temp < 32 Daily Max Temp > 90 Daily Max Temp > 100 Daily Rain > 0.01 Daily Rain > 0.1
Jan 2020 31 56.1 31.6 72.9 21.2 2.5 10 20 0 0 13 5
Feb 2020 29 67.8 27.1 77.4 19.7 0 19 26 0 0 0 0
Mar 2020 31 61.3 31.2 80.9 23 1.02 6 21 0 0 8 5
Apr 2020 30 71.3 37.4 87.3 23.8 0.71 2 7 0 0 4 3
May 2020 24 74.7 37.7 94.5 28.4 1.08 0 4 3 0 5 4
Total 145 - - - - 5.31 37 78 3 0 30 17
Average 29 66.3 33 - - 1.06 7.4 15.6 0.6 0 6 3.4
Maximum 31 74.7 37.7 94.5 - 2.5 19 26 3 0 13 5
Minimum 24 56.1 27.1 - 19.7 0 0 4 0 0 0 0

Climate Summary

Scotts Valley

Last Year | Showing 1/1/19 - 12/31/19
as of 5/25/20 8:55 PM PDT
Temperature (°F) Precip (in) Days
Month Days Avg Max Avg Min Max Max Min Min Total Daily Min Temp < 28 Daily Min Temp < 32 Daily Max Temp > 90 Daily Max Temp > 100 Daily Rain > 0.01 Daily Rain > 0.1
Jan 2019 31 57.6 34.2 74 20.7 8.2 8 13 0 0 12 11
Feb 2019 28 49.3 32 56.8 18.1 15.8 10 15 0 0 18 14
Mar 2019 31 59.1 34.5 73.8 24.4 6.02 3 13 0 0 13 11
Apr 2019 30 71.4 41.4 88.6 31.4 0.42 0 1 0 0 6 1
May 2019 31 73.6 40.4 85.9 30.2 2.86 0 1 0 0 7 5
Jun 2019 30 88 46.4 99.6 34.9 0 0 0 12 0 0 0
Jul 2019 31 90.1 47.6 100.9 40.2 0 0 0 18 1 0 0
Aug 2019 31 93.1 48.8 101.9 42.6 0 0 0 22 5 0 0
Sep 2019 30 85.1 41.8 102.2 30.6 0.17 0 2 11 1 2 1
Oct 2019 27 78 28.3 91.8 15.2 0.07 13 20 2 0 1 0
Nov 2019 30 70.2 28.4 83.9 18.1 2.15 15 23 0 0 3 3
Dec 2019 31 53.2 34.5 63 18.9 6.9 8 14 0 0 18 10
Total 361 - - - - 42.59 57 102 65 7 80 56
Average 30.1 72.4 38.2 - - 3.55 4.8 8.5 5.4 0.6 6.7 4.7
Maximum 31 93.1 48.8 102.2 - 15.8 15 23 22 5 18 14
Minimum 27 49.3 28.3 - 15.2 0 0 0 0 0 0 0
Calm: 6.2%
Calm: 0.1%